Time;durP1;ratioP1;P1;durP2;ratioP2;P2;SDS_P1;SDS_P2;PMS_P1;PMS_P2;Temp;Humidity;BMP_temperature;BMP_pressure;BME280_temperature;BME280_humidity;BME280_pressure;Samples;Min_cycle;Max_cycle;Signal;HPM_P1;HPM_P2
2023/02/27 00:00:16;;;;;;;4.68;2.97;;;;;;;;;;5035348;28;20197;-67
2023/02/27 00:02:43;;;;;;;4.10;3.08;;;;;;;;;;5035465;28;20199;-67
2023/02/27 00:05:12;;;;;;;4.60;3.15;;;;;;;;;;5035573;28;20229;-67
2023/02/27 00:07:39;;;;;;;3.70;3.33;;;;;;;;;;5035403;28;20215;-67
2023/02/27 00:10:07;;;;;;;5.07;3.40;;;;;;;;;;5035832;28;20213;-66
2023/02/27 00:12:36;;;;;;;4.55;3.70;;;;;;;;;;5035365;28;20204;-67
2023/02/27 00:15:04;;;;;;;5.07;3.58;;;;;;;;;;5035756;28;20321;-67
2023/02/27 00:17:32;;;;;;;5.93;3.45;;;;;;;;;;5035988;28;20191;-67
2023/02/27 00:19:59;;;;;;;5.43;3.03;;;;;;;;;;5035205;28;20203;-67
2023/02/27 00:22:27;;;;;;;4.55;3.50;;;;;;;;;;5035644;28;20191;-67
2023/02/27 00:24:54;;;;;;;5.20;2.95;;;;;;;;;;5035332;28;20195;-67
2023/02/27 00:27:22;;;;;;;4.05;3.65;;;;;;;;;;5035124;28;20291;-67
2023/02/27 00:29:49;;;;;;;4.90;3.50;;;;;;;;;;5034998;28;20199;-67
2023/02/27 00:32:16;;;;;;;7.07;3.67;;;;;;;;;;5035015;28;20637;-67
2023/02/27 00:34:43;;;;;;;4.10;3.60;;;;;;;;;;5035382;28;20207;-67
2023/02/27 00:37:10;;;;;;;7.53;3.92;;;;;;;;;;5035153;28;20218;-67
2023/02/27 00:39:39;;;;;;;3.90;3.50;;;;;;;;;;5035979;28;20200;-67
2023/02/27 00:42:06;;;;;;;5.00;3.70;;;;;;;;;;5035074;28;20192;-67
2023/02/27 00:44:33;;;;;;;6.07;3.75;;;;;;;;;;5034926;28;20287;-67
2023/02/27 00:47:00;;;;;;;8.60;4.18;;;;;;;;;;5035014;28;20188;-67
2023/02/27 00:49:28;;;;;;;4.13;3.45;;;;;;;;;;5034641;28;20217;-67
2023/02/27 00:51:55;;;;;;;5.55;4.15;;;;;;;;;;5034852;28;20192;-67
2023/02/27 00:54:22;;;;;;;7.45;3.85;;;;;;;;;;5035089;28;20189;-67
2023/02/27 00:56:50;;;;;;;5.50;3.60;;;;;;;;;;5034639;28;20203;-67
2023/02/27 00:59:18;;;;;;;4.93;3.72;;;;;;;;;;5035380;28;20202;-67
2023/02/27 01:01:45;;;;;;;13.10;3.97;;;;;;;;;;5034709;28;20196;-67
2023/02/27 01:04:12;;;;;;;13.90;4.03;;;;;;;;;;5034794;28;20194;-67
2023/02/27 01:06:40;;;;;;;5.50;4.38;;;;;;;;;;5034577;28;20283;-67
2023/02/27 01:09:07;;;;;;;5.00;4.20;;;;;;;;;;5034620;28;20211;-67
2023/02/27 01:11:34;;;;;;;6.32;3.85;;;;;;;;;;5034997;28;20375;-67
2023/02/27 01:14:03;;;;;;;7.97;3.70;;;;;;;;;;5034347;28;20287;-67
2023/02/27 01:16:30;;;;;;;9.02;4.30;;;;;;;;;;5034142;28;20193;-67
2023/02/27 01:18:57;;;;;;;5.05;3.90;;;;;;;;;;5034202;28;20205;-67
2023/02/27 01:21:24;;;;;;;6.65;4.10;;;;;;;;;;5034566;28;20536;-67
2023/02/27 01:23:52;;;;;;;7.13;4.07;;;;;;;;;;5034380;28;20287;-67
2023/02/27 01:26:19;;;;;;;6.57;5.35;;;;;;;;;;5033882;28;20200;-67
2023/02/27 01:28:46;;;;;;;5.78;4.00;;;;;;;;;;5034189;28;20212;-67
2023/02/27 01:31:15;;;;;;;7.03;4.03;;;;;;;;;;5034412;28;20312;-67
2023/02/27 01:33:42;;;;;;;9.13;4.28;;;;;;;;;;5034340;28;20192;-67
2023/02/27 01:36:09;;;;;;;5.88;4.03;;;;;;;;;;5034026;28;20197;-67
2023/02/27 01:38:36;;;;;;;4.20;3.53;;;;;;;;;;5034097;28;20215;-67
2023/02/27 01:41:06;;;;;;;7.75;4.05;;;;;;;;;;5034013;28;20198;-67
2023/02/27 01:43:33;;;;;;;13.85;4.60;;;;;;;;;;5034712;28;20203;-67
2023/02/27 01:46:00;;;;;;;6.38;4.75;;;;;;;;;;5034363;28;20194;-67
2023/02/27 01:48:32;;;;;;;3.95;3.53;;;;;;;;;;5033875;28;20224;-67
2023/02/27 01:51:02;;;;;;;7.03;5.20;;;;;;;;;;5034163;28;20284;-67
2023/02/27 01:53:31;;;;;;;6.35;3.95;;;;;;;;;;5034786;28;20555;-67
2023/02/27 01:56:05;;;;;;;8.13;4.05;;;;;;;;;;5033759;28;20197;-66
2023/02/27 01:58:32;;;;;;;6.57;4.35;;;;;;;;;;5033966;28;20180;-67
2023/02/27 02:01:00;;;;;;;8.02;4.25;;;;;;;;;;5033161;28;20200;-67
2023/02/27 02:03:29;;;;;;;6.70;4.88;;;;;;;;;;5032909;28;20196;-67
2023/02/27 02:05:59;;;;;;;4.40;3.97;;;;;;;;;;5033310;28;20691;-67
2023/02/27 02:08:27;;;;;;;5.93;4.00;;;;;;;;;;5033711;28;20220;-67
2023/02/27 02:10:55;;;;;;;5.93;3.80;;;;;;;;;;5033910;28;20194;-67
2023/02/27 02:13:23;;;;;;;5.53;4.20;;;;;;;;;;5034001;28;20192;-67
2023/02/27 02:15:53;;;;;;;10.07;4.30;;;;;;;;;;5033522;28;20192;-67
2023/02/27 02:18:25;;;;;;;6.32;4.07;;;;;;;;;;5033525;28;20537;-67
2023/02/27 02:21:07;;;;;;;4.70;4.03;;;;;;;;;;5033812;28;20611;-67
2023/02/27 02:23:49;;;;;;;9.48;4.35;;;;;;;;;;5033975;28;20186;-67
2023/02/27 02:26:21;;;;;;;4.47;3.92;;;;;;;;;;5033070;28;20176;-67
2023/02/27 02:29:09;;;;;;;6.50;4.00;;;;;;;;;;5033130;28;20661;-67
2023/02/27 02:31:56;;;;;;;5.65;4.53;;;;;;;;;;5000343;28;20542;-67
2023/02/27 02:34:33;;;;;;;9.32;4.15;;;;;;;;;;5034190;28;20201;-66
2023/02/27 02:37:26;;;;;;;6.70;4.18;;;;;;;;;;5033337;28;20176;-67
2023/02/27 02:40:05;;;;;;;4.72;4.00;;;;;;;;;;5033919;28;20642;-66
2023/02/27 02:42:35;;;;;;;5.82;4.40;;;;;;;;;;5033586;28;20184;-67
2023/02/27 02:45:09;;;;;;;8.55;4.80;;;;;;;;;;5033547;28;20219;-67
2023/02/27 02:47:43;;;;;;;8.27;5.18;;;;;;;;;;5033640;28;20181;-68
2023/02/27 02:50:13;;;;;;;9.27;4.72;;;;;;;;;;5033726;28;20208;-67
2023/02/27 02:52:45;;;;;;;5.80;4.30;;;;;;;;;;5033196;28;20195;-68
2023/02/27 02:55:16;;;;;;;5.88;4.47;;;;;;;;;;5032982;28;20184;-67
2023/02/27 02:57:46;;;;;;;5.93;4.68;;;;;;;;;;5032898;28;20186;-67
2023/02/27 03:00:16;;;;;;;9.43;4.68;;;;;;;;;;5033064;28;20201;-67
2023/02/27 03:02:46;;;;;;;5.22;4.53;;;;;;;;;;5032723;28;20202;-68
2023/02/27 03:05:15;;;;;;;4.88;4.40;;;;;;;;;;5032738;28;20311;-67
2023/02/27 03:07:44;;;;;;;8.65;5.22;;;;;;;;;;5033064;28;20192;-67
2023/02/27 03:10:14;;;;;;;5.85;4.57;;;;;;;;;;5033048;28;20216;-68
2023/02/27 03:12:44;;;;;;;5.60;4.15;;;;;;;;;;5033269;28;20232;-68
2023/02/27 03:15:14;;;;;;;6.05;4.53;;;;;;;;;;5036885;28;20279;-68
2023/02/27 03:17:45;;;;;;;4.97;4.55;;;;;;;;;;5036718;28;20192;-67
2023/02/27 03:20:15;;;;;;;5.15;4.72;;;;;;;;;;5037288;28;20189;-68
2023/02/27 03:22:45;;;;;;;5.25;4.18;;;;;;;;;;5037023;28;20180;-68
2023/02/27 03:25:15;;;;;;;10.80;5.40;;;;;;;;;;5036588;28;20197;-68
2023/02/27 03:27:44;;;;;;;8.05;4.57;;;;;;;;;;5036192;28;20637;-68
2023/02/27 03:30:13;;;;;;;7.53;4.70;;;;;;;;;;5036744;28;20231;-68
2023/02/27 03:32:45;;;;;;;6.05;4.65;;;;;;;;;;5036280;28;20191;-68
2023/02/27 03:35:13;;;;;;;13.48;5.22;;;;;;;;;;5036715;28;20189;-68
2023/02/27 03:37:44;;;;;;;4.85;4.03;;;;;;;;;;5036285;28;20199;-68
2023/02/27 03:40:17;;;;;;;13.48;4.88;;;;;;;;;;5036735;28;20176;-68
2023/02/27 03:42:48;;;;;;;9.45;4.47;;;;;;;;;;5036671;28;20179;-68
2023/02/27 03:45:19;;;;;;;10.23;5.60;;;;;;;;;;5036013;28;20200;-67
2023/02/27 03:47:47;;;;;;;8.82;5.47;;;;;;;;;;5036667;28;20184;-68
2023/02/27 03:50:14;;;;;;;6.50;4.70;;;;;;;;;;5036330;28;20233;-68
2023/02/27 03:52:41;;;;;;;7.95;4.78;;;;;;;;;;5036212;28;20188;-68
2023/02/27 03:55:11;;;;;;;5.22;4.68;;;;;;;;;;5036004;28;20641;-68
2023/02/27 03:57:39;;;;;;;8.68;5.45;;;;;;;;;;5036108;28;20191;-68
2023/02/27 04:00:08;;;;;;;6.65;4.53;;;;;;;;;;5035936;28;20290;-68
2023/02/27 04:02:36;;;;;;;5.95;4.93;;;;;;;;;;5035724;28;20273;-68
2023/02/27 04:05:04;;;;;;;6.65;5.43;;;;;;;;;;5035895;28;20221;-68
2023/02/27 04:07:34;;;;;;;7.72;5.22;;;;;;;;;;5036019;28;20195;-69
2023/02/27 04:10:09;;;;;;;5.55;5.05;;;;;;;;;;5035887;28;20203;-68
2023/02/27 04:12:46;;;;;;;6.55;5.10;;;;;;;;;;5035436;28;20629;-68
2023/02/27 04:15:23;;;;;;;10.82;5.72;;;;;;;;;;5035980;28;20193;-68
2023/02/27 04:17:55;;;;;;;4.65;4.18;;;;;;;;;;5035846;28;20193;-68
2023/02/27 04:20:43;;;;;;;7.93;5.68;;;;;;;;;;5035715;28;20190;-68
2023/02/27 04:23:12;;;;;;;6.00;5.03;;;;;;;;;;5029318;28;20522;-68
2023/02/27 04:25:58;;;;;;;8.20;4.85;;;;;;;;;;5035015;28;20192;-68
2023/02/27 04:28:28;;;;;;;8.32;6.03;;;;;;;;;;5034941;28;20684;-68
2023/02/27 04:31:07;;;;;;;7.35;5.40;;;;;;;;;;5035357;28;20202;-68
2023/02/27 04:33:40;;;;;;;5.63;5.03;;;;;;;;;;5035038;28;20197;-68
2023/02/27 04:36:10;;;;;;;5.72;4.93;;;;;;;;;;5035816;28;20191;-68
2023/02/27 04:38:40;;;;;;;8.20;5.13;;;;;;;;;;5035147;28;20192;-69
2023/02/27 04:41:09;;;;;;;13.90;5.95;;;;;;;;;;5035189;28;20191;-70
2023/02/27 04:43:38;;;;;;;7.82;6.05;;;;;;;;;;5035087;28;20541;-70
2023/02/27 04:46:09;;;;;;;13.52;5.90;;;;;;;;;;5034815;28;20285;-70
2023/02/27 04:48:37;;;;;;;6.00;4.50;;;;;;;;;;5034889;28;20179;-70
2023/02/27 04:51:06;;;;;;;6.45;5.55;;;;;;;;;;5034425;28;20217;-71
2023/02/27 04:53:36;;;;;;;6.72;6.00;;;;;;;;;;5052463;28;20207;-71
2023/02/27 04:56:05;;;;;;;6.40;5.15;;;;;;;;;;5054314;28;20195;-70
2023/02/27 04:58:34;;;;;;;11.45;5.45;;;;;;;;;;5053693;28;20191;-70
2023/02/27 05:01:04;;;;;;;6.18;5.55;;;;;;;;;;5054078;28;20615;-70
2023/02/27 05:03:33;;;;;;;8.60;5.47;;;;;;;;;;5054120;28;20600;-70
2023/02/27 05:06:01;;;;;;;7.68;5.47;;;;;;;;;;5054050;28;20225;-70
2023/02/27 05:08:30;;;;;;;11.00;6.45;;;;;;;;;;5054032;28;20189;-70
2023/02/27 05:11:01;;;;;;;11.10;6.00;;;;;;;;;;5053892;28;20217;-71
2023/02/27 05:13:32;;;;;;;9.07;5.65;;;;;;;;;;5053937;28;20560;-70
2023/02/27 05:16:04;;;;;;;10.13;5.18;;;;;;;;;;5054056;28;20192;-70
2023/02/27 05:18:32;;;;;;;12.70;6.85;;;;;;;;;;5053869;28;20182;-70
2023/02/27 05:21:04;;;;;;;10.35;5.50;;;;;;;;;;5053494;28;20199;-70
2023/02/27 05:23:36;;;;;;;10.88;5.70;;;;;;;;;;5053597;28;20695;-69
2023/02/27 05:26:08;;;;;;;6.47;5.80;;;;;;;;;;5053744;28;20183;-68
2023/02/27 05:28:37;;;;;;;6.03;5.30;;;;;;;;;;5053460;28;20183;-68
2023/02/27 05:31:08;;;;;;;7.57;5.28;;;;;;;;;;5053183;28;20222;-69
2023/02/27 05:33:38;;;;;;;8.00;5.78;;;;;;;;;;5053701;28;20505;-68
2023/02/27 05:36:08;;;;;;;6.43;5.72;;;;;;;;;;5052830;28;20181;-71
2023/02/27 05:38:37;;;;;;;12.48;6.00;;;;;;;;;;5053293;28;20197;-68
2023/02/27 05:41:06;;;;;;;11.73;5.68;;;;;;;;;;5053837;28;20195;-68
2023/02/27 05:43:35;;;;;;;12.70;7.15;;;;;;;;;;5053765;28;20195;-67
2023/02/27 05:46:05;;;;;;;7.32;5.75;;;;;;;;;;5053378;28;20198;-67
2023/02/27 05:48:34;;;;;;;6.55;5.32;;;;;;;;;;5053976;28;20180;-68
2023/02/27 05:51:04;;;;;;;8.07;5.47;;;;;;;;;;5053503;28;20218;-69
2023/02/27 05:53:34;;;;;;;15.60;5.93;;;;;;;;;;5051229;28;20195;-68
2023/02/27 05:56:02;;;;;;;13.23;6.47;;;;;;;;;;5052884;28;20198;-68
2023/02/27 05:58:30;;;;;;;9.65;5.85;;;;;;;;;;5053484;28;20217;-68
2023/02/27 06:00:58;;;;;;;7.60;5.63;;;;;;;;;;5052551;28;20437;-68
2023/02/27 06:03:27;;;;;;;6.07;5.47;;;;;;;;;;5052024;28;20285;-68
2023/02/27 06:05:55;;;;;;;6.15;5.40;;;;;;;;;;5052494;28;20566;-67
2023/02/27 06:08:24;;;;;;;8.93;5.72;;;;;;;;;;5053349;28;20245;-67
2023/02/27 06:10:51;;;;;;;6.80;5.80;;;;;;;;;;5052369;28;20298;-67
2023/02/27 06:13:19;;;;;;;9.52;5.97;;;;;;;;;;5053506;28;20201;-67
2023/02/27 06:15:46;;;;;;;6.28;5.68;;;;;;;;;;5053360;28;20190;-67
2023/02/27 06:18:14;;;;;;;7.10;5.70;;;;;;;;;;5053179;28;20198;-67
2023/02/27 06:20:42;;;;;;;6.60;6.00;;;;;;;;;;5053584;28;20268;-67
2023/02/27 06:23:09;;;;;;;7.80;5.90;;;;;;;;;;5053440;28;20209;-67
2023/02/27 06:25:38;;;;;;;6.80;5.85;;;;;;;;;;5053034;28;20201;-67
2023/02/27 06:28:06;;;;;;;8.23;6.70;;;;;;;;;;5053286;28;20640;-67
2023/02/27 06:30:33;;;;;;;7.30;6.63;;;;;;;;;;5053136;28;20212;-67
2023/02/27 06:33:00;;;;;;;9.93;6.80;;;;;;;;;;5052903;28;20197;-67
2023/02/27 06:35:28;;;;;;;11.43;6.55;;;;;;;;;;5053151;28;20206;-67
2023/02/27 06:37:55;;;;;;;6.68;6.03;;;;;;;;;;5053343;28;20199;-67
2023/02/27 06:40:27;;;;;;;10.38;6.50;;;;;;;;;;5053199;28;20544;-67
2023/02/27 06:42:55;;;;;;;10.68;7.40;;;;;;;;;;5053321;28;20183;-67
2023/02/27 06:45:24;;;;;;;11.07;6.90;;;;;;;;;;5052834;28;20193;-67
2023/02/27 06:47:51;;;;;;;8.35;6.20;;;;;;;;;;5053776;28;20195;-67
2023/02/27 06:50:18;;;;;;;7.38;6.63;;;;;;;;;;5057053;28;20218;-67
2023/02/27 06:52:45;;;;;;;9.57;6.10;;;;;;;;;;5057334;28;20187;-67
2023/02/27 06:55:18;;;;;;;11.68;5.72;;;;;;;;;;5057082;28;20284;-67
2023/02/27 06:57:46;;;;;;;12.75;6.70;;;;;;;;;;5056869;28;20186;-67
2023/02/27 07:00:15;;;;;;;9.27;6.32;;;;;;;;;;5056660;28;20244;-67
2023/02/27 07:02:43;;;;;;;17.40;7.03;;;;;;;;;;5056773;28;20283;-67
2023/02/27 07:05:11;;;;;;;14.82;6.93;;;;;;;;;;5056940;28;20250;-68
2023/02/27 07:07:39;;;;;;;6.60;5.95;;;;;;;;;;5056918;28;20264;-67
2023/02/27 07:10:07;;;;;;;7.40;6.57;;;;;;;;;;5056802;28;20214;-67
2023/02/27 07:12:34;;;;;;;11.65;6.63;;;;;;;;;;5056701;28;20206;-67
2023/02/27 07:15:01;;;;;;;8.07;5.82;;;;;;;;;;5056800;28;20193;-67
2023/02/27 07:17:30;;;;;;;9.55;7.32;;;;;;;;;;5056430;28;20227;-67
2023/02/27 07:19:57;;;;;;;13.75;6.63;;;;;;;;;;5057003;28;20261;-67
2023/02/27 07:22:24;;;;;;;8.82;6.88;;;;;;;;;;5056637;28;20187;-67
2023/02/27 07:24:52;;;;;;;12.60;7.05;;;;;;;;;;5056969;28;20190;-67
2023/02/27 07:27:19;;;;;;;13.80;6.60;;;;;;;;;;5056532;28;20282;-67
2023/02/27 07:29:46;;;;;;;9.45;6.90;;;;;;;;;;5056410;28;20194;-67
2023/02/27 07:32:13;;;;;;;7.70;6.85;;;;;;;;;;5056229;28;20191;-67
2023/02/27 07:34:42;;;;;;;6.85;6.15;;;;;;;;;;5056640;28;20187;-67
2023/02/27 07:37:09;;;;;;;8.40;6.13;;;;;;;;;;5056536;28;20533;-67
2023/02/27 07:39:36;;;;;;;8.70;6.68;;;;;;;;;;5055979;28;20194;-67
2023/02/27 07:42:04;;;;;;;7.47;6.35;;;;;;;;;;5056521;28;20224;-67
2023/02/27 07:44:31;;;;;;;7.28;6.53;;;;;;;;;;5055893;28;20195;-67
2023/02/27 07:46:58;;;;;;;7.13;5.18;;;;;;;;;;5056288;28;20256;-67
2023/02/27 07:49:26;;;;;;;8.10;5.97;;;;;;;;;;5056403;28;20191;-67
2023/02/27 07:51:55;;;;;;;10.07;7.10;;;;;;;;;;5055944;28;20560;-67
2023/02/27 07:54:22;;;;;;;11.45;6.07;;;;;;;;;;5056293;28;20195;-68
2023/02/27 07:56:49;;;;;;;7.35;6.35;;;;;;;;;;5056320;28;20202;-66
2023/02/27 07:59:16;;;;;;;10.77;6.45;;;;;;;;;;5055530;28;20671;-67
2023/02/27 08:01:43;;;;;;;13.00;5.90;;;;;;;;;;5055453;28;20191;-68
2023/02/27 08:04:10;;;;;;;11.35;5.50;;;;;;;;;;5055937;28;20191;-68
2023/02/27 08:06:38;;;;;;;7.72;5.05;;;;;;;;;;5055752;28;20187;-68
2023/02/27 08:09:07;;;;;;;6.55;5.38;;;;;;;;;;5056198;28;20285;-68
2023/02/27 08:11:34;;;;;;;7.55;5.47;;;;;;;;;;5055575;28;20632;-68
2023/02/27 08:14:01;;;;;;;7.80;6.28;;;;;;;;;;5055691;28;20190;-68
2023/02/27 08:16:29;;;;;;;6.15;5.38;;;;;;;;;;5055665;28;20194;-68
2023/02/27 08:18:56;;;;;;;7.65;5.45;;;;;;;;;;5055103;28;20191;-68
2023/02/27 08:21:23;;;;;;;6.32;5.72;;;;;;;;;;5055683;28;20618;-69
2023/02/27 08:23:50;;;;;;;11.18;6.68;;;;;;;;;;5063281;28;20196;-69
2023/02/27 08:26:20;;;;;;;6.78;6.18;;;;;;;;;;5074697;28;20198;-69
2023/02/27 08:28:47;;;;;;;8.18;6.10;;;;;;;;;;5074350;28;20195;-69
2023/02/27 08:31:14;;;;;;;11.10;6.10;;;;;;;;;;5074416;28;20211;-71
2023/02/27 08:33:41;;;;;;;6.45;5.78;;;;;;;;;;5074587;28;20236;-69
2023/02/27 08:36:09;;;;;;;10.05;6.93;;;;;;;;;;5074700;28;20238;-69
2023/02/27 08:38:36;;;;;;;6.65;5.60;;;;;;;;;;5074114;28;20244;-70
2023/02/27 08:41:03;;;;;;;6.75;5.80;;;;;;;;;;5074514;28;20194;-70
2023/02/27 08:43:32;;;;;;;11.85;6.13;;;;;;;;;;5074439;28;20195;-68
2023/02/27 08:45:59;;;;;;;9.98;6.35;;;;;;;;;;5074396;28;20191;-68
2023/02/27 08:48:26;;;;;;;5.80;5.20;;;;;;;;;;5073931;28;20636;-69
2023/02/27 08:50:54;;;;;;;8.80;5.65;;;;;;;;;;5074259;28;20249;-69
2023/02/27 08:53:21;;;;;;;9.05;5.43;;;;;;;;;;5063972;28;20198;-68
2023/02/27 08:55:50;;;;;;;8.63;5.28;;;;;;;;;;5054205;28;20195;-69
2023/02/27 08:58:18;;;;;;;13.90;6.10;;;;;;;;;;5054314;28;20230;-69
2023/02/27 09:00:46;;;;;;;5.78;5.28;;;;;;;;;;5054397;28;20202;-69
2023/02/27 09:03:14;;;;;;;8.07;5.60;;;;;;;;;;5054010;28;20201;-69
2023/02/27 09:05:41;;;;;;;8.52;5.20;;;;;;;;;;5053576;28;20780;-69
2023/02/27 09:08:08;;;;;;;6.38;5.78;;;;;;;;;;5053696;28;20644;-69
2023/02/27 09:10:35;;;;;;;8.02;6.10;;;;;;;;;;5054062;28;20543;-70
2023/02/27 09:13:03;;;;;;;8.43;5.63;;;;;;;;;;5054177;28;20197;-69
2023/02/27 09:15:33;;;;;;;6.53;4.82;;;;;;;;;;5054365;28;20283;-69
2023/02/27 09:18:05;;;;;;;5.70;4.80;;;;;;;;;;5054346;28;20195;-68
2023/02/27 09:20:32;;;;;;;8.80;5.43;;;;;;;;;;5054075;28;20184;-69
2023/02/27 09:22:59;;;;;;;6.38;4.70;;;;;;;;;;5053871;28;20216;-69
2023/02/27 09:25:26;;;;;;;5.93;4.20;;;;;;;;;;5053887;28;20202;-69
2023/02/27 09:27:54;;;;;;;5.22;3.92;;;;;;;;;;5053713;28;20202;-69
2023/02/27 09:30:21;;;;;;;10.10;4.75;;;;;;;;;;5053555;28;20189;-68
2023/02/27 09:32:48;;;;;;;5.18;4.32;;;;;;;;;;5053842;28;20203;-69
2023/02/27 09:35:19;;;;;;;7.93;4.10;;;;;;;;;;5054080;28;20582;-69
2023/02/27 09:37:47;;;;;;;10.38;4.35;;;;;;;;;;5054148;28;20176;-69
2023/02/27 09:40:24;;;;;;;4.35;3.80;;;;;;;;;;5053664;28;20199;-69
2023/02/27 09:42:52;;;;;;;6.60;3.83;;;;;;;;;;5053353;28;20275;-69
2023/02/27 09:45:23;;;;;;;7.25;3.70;;;;;;;;;;5053402;28;20196;-69
2023/02/27 09:47:52;;;;;;;4.60;3.97;;;;;;;;;;5053651;28;20192;-69
2023/02/27 09:50:28;;;;;;;4.40;3.78;;;;;;;;;;5053373;28;20196;-68
2023/02/27 09:52:55;;;;;;;6.07;3.45;;;;;;;;;;5053584;28;20467;-68
2023/02/27 09:55:23;;;;;;;6.68;4.65;;;;;;;;;;5053589;28;20195;-68
2023/02/27 09:57:53;;;;;;;12.35;4.35;;;;;;;;;;5053261;28;20194;-69
2023/02/27 10:00:31;;;;;;;5.65;3.90;;;;;;;;;;5054174;28;20185;-68
2023/02/27 10:03:03;;;;;;;10.02;4.13;;;;;;;;;;5053076;28;20674;-69
2023/02/27 10:05:36;;;;;;;3.70;3.40;;;;;;;;;;5052991;28;20233;-69
2023/02/27 10:08:07;;;;;;;7.68;3.47;;;;;;;;;;5053139;28;20236;-69
2023/02/27 10:10:38;;;;;;;4.38;3.28;;;;;;;;;;5053334;28;20189;-70
2023/02/27 10:13:35;;;;;;;6.32;3.65;;;;;;;;;;5053022;28;20647;-68
2023/02/27 10:16:03;;;;;;;7.20;4.65;;;;;;;;;;4953405;29;20192;-68
2023/02/27 10:18:31;;;;;;;5.45;3.40;;;;;;;;;;5030447;28;20193;-68
2023/02/27 10:21:01;;;;;;;2.92;2.67;;;;;;;;;;5053290;28;20255;-68
2023/02/27 10:23:32;;;;;;;11.30;3.60;;;;;;;;;;5052528;28;20217;-69
2023/02/27 10:26:01;;;;;;;10.35;3.30;;;;;;;;;;5052584;28;20178;-69
2023/02/27 10:28:34;;;;;;;5.10;2.83;;;;;;;;;;5052794;28;20193;-69
2023/02/27 10:31:02;;;;;;;4.80;2.97;;;;;;;;;;5052628;28;20679;-69
2023/02/27 10:33:33;;;;;;;4.53;2.70;;;;;;;;;;5052937;28;20194;-68
2023/02/27 10:36:02;;;;;;;5.63;3.22;;;;;;;;;;5053407;28;20204;-68
2023/02/27 10:38:32;;;;;;;14.60;2.58;;;;;;;;;;5053236;28;20561;-68
2023/02/27 10:41:00;;;;;;;5.15;2.83;;;;;;;;;;5052866;28;20182;-68
2023/02/27 10:43:28;;;;;;;5.32;2.90;;;;;;;;;;5052735;28;20201;-68
2023/02/27 10:45:55;;;;;;;4.78;3.50;;;;;;;;;;5052597;28;20198;-68
2023/02/27 10:48:22;;;;;;;5.63;3.50;;;;;;;;;;5052583;28;20204;-69
2023/02/27 10:50:51;;;;;;;4.93;2.58;;;;;;;;;;5052809;28;20192;-68
2023/02/27 10:53:21;;;;;;;3.40;2.60;;;;;;;;;;5053317;28;20197;-70
2023/02/27 10:55:56;;;;;;;4.25;2.95;;;;;;;;;;5053290;28;20193;-68
2023/02/27 10:58:23;;;;;;;4.20;3.58;;;;;;;;;;5052902;28;20177;-68
2023/02/27 11:00:54;;;;;;;5.88;2.97;;;;;;;;;;5053008;28;20277;-68
2023/02/27 11:03:22;;;;;;;2.97;2.67;;;;;;;;;;5052261;28;20197;-69
2023/02/27 11:05:54;;;;;;;4.43;3.25;;;;;;;;;;5051855;28;20226;-68
2023/02/27 11:08:24;;;;;;;4.70;2.92;;;;;;;;;;5052571;28;20204;-69
2023/02/27 11:10:56;;;;;;;8.95;3.72;;;;;;;;;;5052544;28;20205;-69
2023/02/27 11:13:24;;;;;;;3.40;3.10;;;;;;;;;;5052875;28;20189;-69
2023/02/27 11:16:01;;;;;;;3.67;2.60;;;;;;;;;;5052723;28;20204;-68
2023/02/27 11:18:29;;;;;;;4.35;3.05;;;;;;;;;;5053191;28;20192;-68
2023/02/27 11:21:10;;;;;;;4.40;3.28;;;;;;;;;;5052530;28;20196;-68
2023/02/27 11:23:39;;;;;;;6.50;3.40;;;;;;;;;;5052609;28;20177;-69
2023/02/27 11:26:11;;;;;;;3.30;2.80;;;;;;;;;;5052808;28;20194;-68
2023/02/27 11:28:38;;;;;;;6.88;3.05;;;;;;;;;;5052508;28;20181;-69
2023/02/27 11:31:07;;;;;;;6.97;3.33;;;;;;;;;;5052548;28;20199;-68
2023/02/27 11:33:35;;;;;;;3.78;3.42;;;;;;;;;;5052815;28;20221;-68
2023/02/27 11:36:03;;;;;;;5.35;3.42;;;;;;;;;;5055933;28;20195;-68
2023/02/27 11:38:31;;;;;;;4.82;3.20;;;;;;;;;;5056245;28;20196;-68
2023/02/27 11:41:09;;;;;;;4.97;3.15;;;;;;;;;;5056220;28;20278;-68
2023/02/27 11:43:42;;;;;;;4.20;3.80;;;;;;;;;;5056758;28;20183;-68
2023/02/27 11:46:11;;;;;;;4.60;4.20;;;;;;;;;;5056290;28;20190;-68
2023/02/27 11:48:40;;;;;;;4.55;4.15;;;;;;;;;;5056089;28;20202;-68
2023/02/27 11:51:21;;;;;;;4.45;3.95;;;;;;;;;;5055985;28;20189;-68
2023/02/27 11:54:01;;;;;;;5.30;4.07;;;;;;;;;;5056066;28;20190;-68
2023/02/27 11:56:32;;;;;;;7.25;4.97;;;;;;;;;;5056046;28;20188;-68
2023/02/27 11:59:02;;;;;;;4.90;3.60;;;;;;;;;;5056037;28;20178;-68
2023/02/27 12:01:32;;;;;;;6.95;4.00;;;;;;;;;;5055759;28;20194;-68
2023/02/27 12:04:02;;;;;;;5.60;4.55;;;;;;;;;;5056268;28;20193;-68
2023/02/27 12:06:32;;;;;;;8.90;4.35;;;;;;;;;;5055306;28;20225;-68
2023/02/27 12:09:01;;;;;;;4.65;4.25;;;;;;;;;;5055446;28;20197;-68
2023/02/27 12:11:33;;;;;;;6.53;4.10;;;;;;;;;;5069191;28;20195;-68
2023/02/27 12:14:04;;;;;;;4.45;4.05;;;;;;;;;;5076044;28;20185;-68
2023/02/27 12:16:35;;;;;;;4.65;3.33;;;;;;;;;;5075438;28;20199;-68
2023/02/27 12:19:05;;;;;;;5.20;3.88;;;;;;;;;;5075801;28;20187;-68
2023/02/27 12:21:33;;;;;;;5.47;4.28;;;;;;;;;;5075423;28;20190;-68
2023/02/27 12:24:03;;;;;;;3.63;3.33;;;;;;;;;;5075496;28;20285;-67
2023/02/27 12:26:33;;;;;;;5.63;3.38;;;;;;;;;;5075569;28;20284;-67
2023/02/27 12:29:03;;;;;;;5.40;3.58;;;;;;;;;;5075477;28;20208;-68
2023/02/27 12:31:36;;;;;;;5.72;2.70;;;;;;;;;;5075318;28;20212;-68
2023/02/27 12:34:05;;;;;;;6.78;3.00;;;;;;;;;;5075747;28;20227;-68
2023/02/27 12:36:33;;;;;;;5.93;3.17;;;;;;;;;;5075174;28;20298;-68
2023/02/27 12:39:00;;;;;;;5.25;3.30;;;;;;;;;;5075468;28;20193;-68
2023/02/27 12:41:36;;;;;;;4.15;2.90;;;;;;;;;;5070609;28;20195;-69
2023/02/27 12:44:25;;;;;;;5.15;2.85;;;;;;;;;;5054086;28;20179;-68
2023/02/27 12:46:55;;;;;;;5.28;2.70;;;;;;;;;;5053951;28;20181;-68
2023/02/27 12:49:27;;;;;;;4.03;3.00;;;;;;;;;;5054295;28;20241;-68
2023/02/27 12:51:59;;;;;;;6.88;2.97;;;;;;;;;;5054342;28;20203;-68
2023/02/27 12:54:29;;;;;;;3.65;2.80;;;;;;;;;;5054119;28;20175;-69
2023/02/27 12:57:02;;;;;;;2.70;2.50;;;;;;;;;;5053923;28;20636;-68
2023/02/27 12:59:44;;;;;;;4.18;3.75;;;;;;;;;;5054063;28;20185;-68
2023/02/27 13:02:21;;;;;;;8.13;2.90;;;;;;;;;;5054424;28;20539;-68
2023/02/27 13:04:49;;;;;;;2.95;2.55;;;;;;;;;;5054848;28;20218;-68
2023/02/27 13:07:23;;;;;;;2.78;2.53;;;;;;;;;;5054161;28;20191;-68
2023/02/27 13:09:52;;;;;;;4.85;2.33;;;;;;;;;;5054738;28;20213;-68
2023/02/27 13:12:24;;;;;;;3.33;2.50;;;;;;;;;;5053878;28;20222;-68
2023/02/27 13:14:57;;;;;;;4.85;2.80;;;;;;;;;;5054600;28;20181;-68
2023/02/27 13:17:26;;;;;;;5.47;3.05;;;;;;;;;;5053849;28;20269;-69
2023/02/27 13:19:57;;;;;;;2.78;2.40;;;;;;;;;;5054044;28;20193;-69
2023/02/27 13:22:29;;;;;;;4.75;2.60;;;;;;;;;;5054232;28;20187;-68
2023/02/27 13:24:58;;;;;;;6.32;4.22;;;;;;;;;;5054552;28;20193;-68
2023/02/27 13:27:28;;;;;;;3.90;3.05;;;;;;;;;;5054028;28;20204;-68
2023/02/27 13:30:01;;;;;;;5.70;2.50;;;;;;;;;;5054251;28;20205;-68
2023/02/27 13:32:31;;;;;;;2.55;2.00;;;;;;;;;;5054037;28;20206;-68
2023/02/27 13:35:02;;;;;;;4.75;2.67;;;;;;;;;;5054225;28;20178;-68
2023/02/27 13:37:44;;;;;;;3.85;2.20;;;;;;;;;;5053421;28;20203;-68
2023/02/27 13:40:27;;;;;;;2.67;2.20;;;;;;;;;;5052913;28;20195;-69
2023/02/27 13:42:58;;;;;;;6.47;2.55;;;;;;;;;;5053631;28;20204;-68
2023/02/27 13:45:44;;;;;;;3.03;2.15;;;;;;;;;;5053906;28;20175;-69
2023/02/27 13:48:26;;;;;;;4.68;2.15;;;;;;;;;;5053631;28;20629;-68
2023/02/27 13:50:53;;;;;;;2.42;2.22;;;;;;;;;;5052744;28;20285;-68
2023/02/27 13:53:22;;;;;;;5.20;2.50;;;;;;;;;;5053565;28;20308;-69
2023/02/27 13:55:50;;;;;;;2.88;2.20;;;;;;;;;;5053513;28;20260;-69
2023/02/27 13:58:23;;;;;;;6.70;2.45;;;;;;;;;;5052501;28;20209;-68
2023/02/27 14:00:58;;;;;;;2.20;2.05;;;;;;;;;;5053327;28;20191;-69
2023/02/27 14:03:26;;;;;;;6.88;2.95;;;;;;;;;;5053470;28;20190;-68
2023/02/27 14:05:56;;;;;;;7.28;2.60;;;;;;;;;;5053424;28;20695;-70
2023/02/27 14:08:24;;;;;;;2.95;2.65;;;;;;;;;;5053514;28;20198;-68
2023/02/27 14:10:54;;;;;;;5.55;3.00;;;;;;;;;;5053586;28;20204;-69
2023/02/27 14:13:40;;;;;;;2.55;2.35;;;;;;;;;;5053208;28;20671;-69
2023/02/27 14:16:09;;;;;;;5.25;3.38;;;;;;;;;;5053152;28;20226;-77
2023/02/27 14:18:54;;;;;;;3.17;2.88;;;;;;;;;;5051347;28;20213;-77
2023/02/27 14:21:40;;;;;;;3.63;2.60;;;;;;;;;;5052743;28;20191;-77
2023/02/27 14:24:13;;;;;;;3.45;2.63;;;;;;;;;;5052732;28;20194;-69
2023/02/27 14:26:45;;;;;;;3.45;2.92;;;;;;;;;;5053031;28;20193;-73
2023/02/27 14:29:17;;;;;;;4.82;2.90;;;;;;;;;;5052945;28;20620;-71
2023/02/27 14:31:46;;;;;;;5.00;2.70;;;;;;;;;;5053184;28;20270;-67
2023/02/27 14:34:15;;;;;;;5.70;2.42;;;;;;;;;;5053232;28;20219;-68
2023/02/27 14:36:44;;;;;;;4.18;2.38;;;;;;;;;;5053017;28;20191;-75
2023/02/27 14:39:20;;;;;;;4.28;3.03;;;;;;;;;;5052874;28;20222;-73
2023/02/27 14:41:50;;;;;;;4.32;3.67;;;;;;;;;;5053255;28;20182;-71
2023/02/27 14:44:19;;;;;;;2.90;2.58;;;;;;;;;;5053335;28;20187;-70
2023/02/27 14:46:48;;;;;;;5.97;2.65;;;;;;;;;;5053306;28;20243;-71
2023/02/27 14:49:19;;;;;;;8.30;3.40;;;;;;;;;;5053144;28;20218;-70
2023/02/27 14:51:47;;;;;;;9.98;2.80;;;;;;;;;;5053366;28;20190;-70
2023/02/27 14:54:15;;;;;;;2.85;2.60;;;;;;;;;;5053295;28;20269;-72
2023/02/27 14:56:53;;;;;;;6.63;3.00;;;;;;;;;;5052625;28;20199;-66